sensor_id;sensor_type;location;lat;lon;timestamp;pressure;altitude;pressure_sealevel;temperature;humidity
34237;BME280;20501;45.956;13.632;2023-03-26T00:01:20;100296.38;;;10.44;66.47
34237;BME280;20501;45.956;13.632;2023-03-26T00:03:48;100295.41;;;10.15;68.51
34237;BME280;20501;45.956;13.632;2023-03-26T00:06:20;100292.47;;;10.66;66.21
34237;BME280;20501;45.956;13.632;2023-03-26T00:08:47;100288.31;;;10.14;69.55
34237;BME280;20501;45.956;13.632;2023-03-26T00:11:15;100288.63;;;9.82;69.85
34237;BME280;20501;45.956;13.632;2023-03-26T00:13:42;100279.50;;;9.63;70.37
34237;BME280;20501;45.956;13.632;2023-03-26T00:16:10;100284.94;;;10.60;70.30
34237;BME280;20501;45.956;13.632;2023-03-26T00:18:38;100275.25;;;10.67;69.41
34237;BME280;20501;45.956;13.632;2023-03-26T00:21:05;100281.84;;;11.56;66.69
34237;BME280;20501;45.956;13.632;2023-03-26T00:23:33;100268.72;;;11.61;63.72
34237;BME280;20501;45.956;13.632;2023-03-26T00:26:03;100275.25;;;11.95;63.10
34237;BME280;20501;45.956;13.632;2023-03-26T00:28:29;100278.63;;;12.07;65.00
34237;BME280;20501;45.956;13.632;2023-03-26T00:31:01;100276.03;;;10.87;66.41
34237;BME280;20501;45.956;13.632;2023-03-26T00:33:27;100272.47;;;10.49;66.15
34237;BME280;20501;45.956;13.632;2023-03-26T00:35:54;100284.47;;;11.48;66.08
34237;BME280;20501;45.956;13.632;2023-03-26T00:38:23;100278.06;;;11.03;68.51
34237;BME280;20501;45.956;13.632;2023-03-26T00:40:51;100276.72;;;12.26;64.50
34237;BME280;20501;45.956;13.632;2023-03-26T00:43:18;100281.56;;;11.59;66.07
34237;BME280;20501;45.956;13.632;2023-03-26T00:45:48;100280.47;;;12.59;63.95
34237;BME280;20501;45.956;13.632;2023-03-26T00:48:15;100277.00;;;11.14;67.47
34237;BME280;20501;45.956;13.632;2023-03-26T00:50:43;100276.41;;;10.92;66.27
34237;BME280;20501;45.956;13.632;2023-03-26T00:53:10;100275.25;;;10.67;66.44
34237;BME280;20501;45.956;13.632;2023-03-26T00:55:39;100267.81;;;10.41;70.42
34237;BME280;20501;45.956;13.632;2023-03-26T00:58:04;100273.44;;;11.77;66.52
34237;BME280;20501;45.956;13.632;2023-03-26T01:00:33;100261.22;;;12.36;60.95
34237;BME280;20501;45.956;13.632;2023-03-26T01:03:02;100278.78;;;11.05;66.96
34237;BME280;20501;45.956;13.632;2023-03-26T01:08:11;100265.72;;;12.27;61.03
34237;BME280;20501;45.956;13.632;2023-03-26T01:10:42;100267.63;;;11.36;64.65
34237;BME280;20501;45.956;13.632;2023-03-26T01:13:08;100262.34;;;10.89;64.65
34237;BME280;20501;45.956;13.632;2023-03-26T01:15:34;100251.00;;;10.85;67.65
34237;BME280;20501;45.956;13.632;2023-03-26T01:18:02;100254.72;;;11.66;64.09
34237;BME280;20501;45.956;13.632;2023-03-26T01:20:31;100246.00;;;12.43;63.33
34237;BME280;20501;45.956;13.632;2023-03-26T01:23:05;100249.38;;;11.92;64.57
34237;BME280;20501;45.956;13.632;2023-03-26T01:25:36;100235.38;;;12.50;63.38
34237;BME280;20501;45.956;13.632;2023-03-26T01:28:05;100237.56;;;11.21;63.25
34237;BME280;20501;45.956;13.632;2023-03-26T01:31:08;100233.69;;;10.30;66.69
34237;BME280;20501;45.956;13.632;2023-03-26T01:33:48;100233.50;;;10.89;67.31
34237;BME280;20501;45.956;13.632;2023-03-26T01:36:46;100234.19;;;11.55;64.40
34237;BME280;20501;45.956;13.632;2023-03-26T01:39:30;100225.56;;;12.22;64.28
34237;BME280;20501;45.956;13.632;2023-03-26T01:42:03;100211.78;;;12.42;63.40
34237;BME280;20501;45.956;13.632;2023-03-26T01:44:47;100214.59;;;12.24;64.04
34237;BME280;20501;45.956;13.632;2023-03-26T01:47:16;100215.66;;;12.31;64.24
34237;BME280;20501;45.956;13.632;2023-03-26T01:49:42;100211.56;;;12.62;63.05
34237;BME280;20501;45.956;13.632;2023-03-26T01:52:13;100216.53;;;10.69;65.03
34237;BME280;20501;45.956;13.632;2023-03-26T01:54:39;100224.50;;;10.23;70.14
34237;BME280;20501;45.956;13.632;2023-03-26T02:02:44;100224.22;;;10.16;67.01
34237;BME280;20501;45.956;13.632;2023-03-26T02:05:25;100225.44;;;9.74;68.27
34237;BME280;20501;45.956;13.632;2023-03-26T02:08:02;100226.09;;;11.09;67.40
34237;BME280;20501;45.956;13.632;2023-03-26T02:10:33;100209.00;;;10.25;67.87
34237;BME280;20501;45.956;13.632;2023-03-26T02:13:00;100212.66;;;9.86;70.91
34237;BME280;20501;45.956;13.632;2023-03-26T02:15:26;100202.84;;;10.71;65.08
34237;BME280;20501;45.956;13.632;2023-03-26T02:17:51;100204.31;;;10.65;66.14
34237;BME280;20501;45.956;13.632;2023-03-26T02:20:19;100207.59;;;10.87;68.63
34237;BME280;20501;45.956;13.632;2023-03-26T02:22:46;100205.44;;;10.72;68.31
34237;BME280;20501;45.956;13.632;2023-03-26T02:25:17;100207.75;;;10.19;67.34
34237;BME280;20501;45.956;13.632;2023-03-26T02:27:43;100201.63;;;9.60;69.98
34237;BME280;20501;45.956;13.632;2023-03-26T02:30:15;100195.38;;;9.50;69.15
34237;BME280;20501;45.956;13.632;2023-03-26T02:32:41;100208.13;;;9.57;69.27
34237;BME280;20501;45.956;13.632;2023-03-26T02:35:08;100211.03;;;10.61;66.91
34237;BME280;20501;45.956;13.632;2023-03-26T02:37:34;100213.16;;;10.85;64.46
34237;BME280;20501;45.956;13.632;2023-03-26T02:40:00;100208.19;;;10.05;67.99
34237;BME280;20501;45.956;13.632;2023-03-26T02:42:26;100204.56;;;10.44;66.59
34237;BME280;20501;45.956;13.632;2023-03-26T02:44:51;100205.59;;;11.17;65.87
34237;BME280;20501;45.956;13.632;2023-03-26T02:47:17;100213.66;;;10.33;66.27
34237;BME280;20501;45.956;13.632;2023-03-26T02:49:42;100211.84;;;11.35;66.67
34237;BME280;20501;45.956;13.632;2023-03-26T02:52:08;100201.31;;;10.20;65.76
34237;BME280;20501;45.956;13.632;2023-03-26T02:54:34;100204.28;;;9.40;69.74
34237;BME280;20501;45.956;13.632;2023-03-26T02:57:00;100195.78;;;9.55;69.12
34237;BME280;20501;45.956;13.632;2023-03-26T02:59:25;100207.41;;;9.36;70.19
34237;BME280;20501;45.956;13.632;2023-03-26T03:01:51;100209.97;;;9.47;69.05
34237;BME280;20501;45.956;13.632;2023-03-26T03:04:17;100199.81;;;10.08;70.84
34237;BME280;20501;45.956;13.632;2023-03-26T03:06:42;100195.94;;;9.43;68.81
34237;BME280;20501;45.956;13.632;2023-03-26T03:09:09;100185.44;;;9.60;68.38
34237;BME280;20501;45.956;13.632;2023-03-26T03:11:37;100189.41;;;10.13;69.80
34237;BME280;20501;45.956;13.632;2023-03-26T03:14:03;100203.06;;;10.59;66.78
34237;BME280;20501;45.956;13.632;2023-03-26T03:16:29;100190.31;;;9.94;68.04
34237;BME280;20501;45.956;13.632;2023-03-26T03:18:55;100205.50;;;10.05;67.42
34237;BME280;20501;45.956;13.632;2023-03-26T03:21:30;100208.59;;;10.20;68.97
34237;BME280;20501;45.956;13.632;2023-03-26T03:23:56;100213.09;;;9.42;68.50
34237;BME280;20501;45.956;13.632;2023-03-26T03:26:23;100210.66;;;9.69;68.19
34237;BME280;20501;45.956;13.632;2023-03-26T03:28:52;100214.88;;;10.01;68.12
34237;BME280;20501;45.956;13.632;2023-03-26T03:31:17;100218.56;;;10.00;69.97
34237;BME280;20501;45.956;13.632;2023-03-26T03:33:43;100205.94;;;10.00;70.18
34237;BME280;20501;45.956;13.632;2023-03-26T03:36:10;100210.63;;;10.83;67.23
34237;BME280;20501;45.956;13.632;2023-03-26T03:38:37;100209.56;;;10.66;65.79
34237;BME280;20501;45.956;13.632;2023-03-26T03:41:03;100206.25;;;11.73;65.35
34237;BME280;20501;45.956;13.632;2023-03-26T03:43:29;100206.16;;;9.40;69.08
34237;BME280;20501;45.956;13.632;2023-03-26T03:45:54;100208.09;;;8.98;70.95
34237;BME280;20501;45.956;13.632;2023-03-26T03:48:20;100211.56;;;9.50;71.13
34237;BME280;20501;45.956;13.632;2023-03-26T03:50:45;100220.31;;;9.81;67.64
34237;BME280;20501;45.956;13.632;2023-03-26T03:53:11;100219.66;;;10.17;67.62
34237;BME280;20501;45.956;13.632;2023-03-26T03:55:40;100212.25;;;9.71;70.55
34237;BME280;20501;45.956;13.632;2023-03-26T03:58:06;100209.81;;;9.19;69.96
34237;BME280;20501;45.956;13.632;2023-03-26T04:00:34;100202.34;;;10.19;67.48
34237;BME280;20501;45.956;13.632;2023-03-26T04:03:02;100208.69;;;9.81;69.70
34237;BME280;20501;45.956;13.632;2023-03-26T04:05:30;100211.78;;;9.07;71.32
34237;BME280;20501;45.956;13.632;2023-03-26T04:07:56;100207.97;;;9.10;71.15
34237;BME280;20501;45.956;13.632;2023-03-26T04:10:21;100202.16;;;9.24;71.51
34237;BME280;20501;45.956;13.632;2023-03-26T04:12:47;100202.16;;;9.14;70.24
34237;BME280;20501;45.956;13.632;2023-03-26T04:15:12;100197.47;;;9.26;70.36
34237;BME280;20501;45.956;13.632;2023-03-26T04:17:38;100199.88;;;9.69;68.51
34237;BME280;20501;45.956;13.632;2023-03-26T04:20:08;100198.03;;;9.59;69.12
34237;BME280;20501;45.956;13.632;2023-03-26T04:22:34;100196.31;;;9.09;70.71
34237;BME280;20501;45.956;13.632;2023-03-26T04:25:00;100201.34;;;9.34;71.44
34237;BME280;20501;45.956;13.632;2023-03-26T04:27:29;100197.75;;;9.13;70.90
34237;BME280;20501;45.956;13.632;2023-03-26T04:29:57;100207.94;;;9.00;71.50
34237;BME280;20501;45.956;13.632;2023-03-26T04:32:25;100199.44;;;9.83;69.62
34237;BME280;20501;45.956;13.632;2023-03-26T04:34:55;100200.75;;;9.40;71.11
34237;BME280;20501;45.956;13.632;2023-03-26T04:37:36;100197.56;;;10.03;68.69
34237;BME280;20501;45.956;13.632;2023-03-26T04:40:11;100179.72;;;9.63;69.95
34237;BME280;20501;45.956;13.632;2023-03-26T04:42:38;100177.41;;;9.88;69.45
34237;BME280;20501;45.956;13.632;2023-03-26T04:45:11;100172.78;;;9.60;69.55
34237;BME280;20501;45.956;13.632;2023-03-26T04:47:36;100176.84;;;10.42;68.34
34237;BME280;20501;45.956;13.632;2023-03-26T04:50:04;100179.78;;;10.11;68.32
34237;BME280;20501;45.956;13.632;2023-03-26T04:52:31;100183.34;;;10.01;67.82
34237;BME280;20501;45.956;13.632;2023-03-26T04:54:56;100176.63;;;10.25;69.93
34237;BME280;20501;45.956;13.632;2023-03-26T04:57:30;100173.94;;;10.05;66.61
34237;BME280;20501;45.956;13.632;2023-03-26T04:59:59;100165.69;;;9.69;68.52
34237;BME280;20501;45.956;13.632;2023-03-26T05:02:24;100165.38;;;10.86;65.82
34237;BME280;20501;45.956;13.632;2023-03-26T05:04:50;100160.34;;;10.45;67.79
34237;BME280;20501;45.956;13.632;2023-03-26T05:07:18;100166.28;;;11.22;67.05
34237;BME280;20501;45.956;13.632;2023-03-26T05:09:44;100165.34;;;11.32;63.78
34237;BME280;20501;45.956;13.632;2023-03-26T05:12:09;100157.88;;;11.52;64.57
34237;BME280;20501;45.956;13.632;2023-03-26T05:14:35;100156.47;;;12.45;62.90
34237;BME280;20501;45.956;13.632;2023-03-26T05:17:02;100156.59;;;12.35;62.82
34237;BME280;20501;45.956;13.632;2023-03-26T05:19:35;100160.97;;;12.28;62.46
34237;BME280;20501;45.956;13.632;2023-03-26T05:22:00;100156.00;;;11.70;62.22
34237;BME280;20501;45.956;13.632;2023-03-26T05:24:26;100154.41;;;11.23;66.33
34237;BME280;20501;45.956;13.632;2023-03-26T05:26:53;100158.69;;;11.26;66.01
34237;BME280;20501;45.956;13.632;2023-03-26T05:29:18;100162.44;;;11.96;63.75
34237;BME280;20501;45.956;13.632;2023-03-26T05:31:46;100160.22;;;11.46;65.46
34237;BME280;20501;45.956;13.632;2023-03-26T05:34:13;100160.38;;;10.91;66.74
34237;BME280;20501;45.956;13.632;2023-03-26T05:36:38;100155.81;;;10.35;68.38
34237;BME280;20501;45.956;13.632;2023-03-26T05:39:04;100155.91;;;11.80;65.47
34237;BME280;20501;45.956;13.632;2023-03-26T05:41:29;100160.69;;;11.86;65.03
34237;BME280;20501;45.956;13.632;2023-03-26T05:43:55;100157.34;;;11.30;66.61
34237;BME280;20501;45.956;13.632;2023-03-26T05:46:20;100146.22;;;12.30;63.37
34237;BME280;20501;45.956;13.632;2023-03-26T05:48:47;100148.97;;;11.59;62.64
34237;BME280;20501;45.956;13.632;2023-03-26T05:51:13;100146.59;;;11.56;65.29
34237;BME280;20501;45.956;13.632;2023-03-26T05:53:40;100148.16;;;11.41;65.41
34237;BME280;20501;45.956;13.632;2023-03-26T05:56:06;100144.38;;;10.79;64.78
34237;BME280;20501;45.956;13.632;2023-03-26T05:58:33;100139.44;;;11.29;65.99
34237;BME280;20501;45.956;13.632;2023-03-26T06:01:04;100151.19;;;11.82;65.37
34237;BME280;20501;45.956;13.632;2023-03-26T06:03:33;100146.78;;;11.81;64.02
34237;BME280;20501;45.956;13.632;2023-03-26T06:05:59;100139.06;;;12.56;62.49
34237;BME280;20501;45.956;13.632;2023-03-26T06:08:24;100146.66;;;12.52;62.58
34237;BME280;20501;45.956;13.632;2023-03-26T06:10:57;100146.41;;;11.76;64.90
34237;BME280;20501;45.956;13.632;2023-03-26T06:13:23;100157.44;;;11.02;65.53
34237;BME280;20501;45.956;13.632;2023-03-26T06:15:48;100156.91;;;11.79;62.47
34237;BME280;20501;45.956;13.632;2023-03-26T06:18:13;100156.94;;;10.43;66.57
34237;BME280;20501;45.956;13.632;2023-03-26T06:20:42;100159.53;;;10.25;67.20
34237;BME280;20501;45.956;13.632;2023-03-26T06:23:08;100158.97;;;10.68;65.54
34237;BME280;20501;45.956;13.632;2023-03-26T06:25:33;100162.38;;;11.07;66.83
34237;BME280;20501;45.956;13.632;2023-03-26T06:27:59;100166.00;;;10.14;67.80
34237;BME280;20501;45.956;13.632;2023-03-26T06:30:24;100166.91;;;9.95;67.81
34237;BME280;20501;45.956;13.632;2023-03-26T06:32:49;100177.97;;;9.91;69.63
34237;BME280;20501;45.956;13.632;2023-03-26T06:35:15;100170.75;;;10.40;69.07
34237;BME280;20501;45.956;13.632;2023-03-26T06:37:41;100173.31;;;10.31;67.93
34237;BME280;20501;45.956;13.632;2023-03-26T06:40:07;100171.31;;;9.96;69.31
34237;BME280;20501;45.956;13.632;2023-03-26T06:42:33;100164.03;;;10.06;69.28
34237;BME280;20501;45.956;13.632;2023-03-26T06:44:58;100156.00;;;10.62;67.68
34237;BME280;20501;45.956;13.632;2023-03-26T06:47:23;100160.19;;;10.46;67.85
34237;BME280;20501;45.956;13.632;2023-03-26T06:49:49;100160.00;;;10.58;68.97
34237;BME280;20501;45.956;13.632;2023-03-26T06:52:15;100153.41;;;10.32;69.19
34237;BME280;20501;45.956;13.632;2023-03-26T06:54:40;100149.06;;;10.77;67.45
34237;BME280;20501;45.956;13.632;2023-03-26T06:57:05;100147.38;;;12.19;64.16
34237;BME280;20501;45.956;13.632;2023-03-26T06:59:31;100142.66;;;12.73;62.05
34237;BME280;20501;45.956;13.632;2023-03-26T07:01:56;100132.88;;;11.76;63.56
34237;BME280;20501;45.956;13.632;2023-03-26T07:04:22;100130.09;;;11.23;66.13
34237;BME280;20501;45.956;13.632;2023-03-26T07:06:47;100125.09;;;11.99;64.49
34237;BME280;20501;45.956;13.632;2023-03-26T07:09:13;100121.31;;;11.92;65.07
34237;BME280;20501;45.956;13.632;2023-03-26T07:11:38;100119.66;;;12.26;64.30
34237;BME280;20501;45.956;13.632;2023-03-26T07:14:03;100118.34;;;12.97;61.63
34237;BME280;20501;45.956;13.632;2023-03-26T07:16:29;100113.69;;;12.14;63.46
34237;BME280;20501;45.956;13.632;2023-03-26T07:18:54;100121.19;;;12.36;63.47
34237;BME280;20501;45.956;13.632;2023-03-26T07:21:21;100108.72;;;12.52;62.37
34237;BME280;20501;45.956;13.632;2023-03-26T07:23:47;100112.09;;;13.13;61.29
34237;BME280;20501;45.956;13.632;2023-03-26T07:26:34;100106.47;;;12.31;61.77
34237;BME280;20501;45.956;13.632;2023-03-26T07:32:24;100120.59;;;12.51;63.28
34237;BME280;20501;45.956;13.632;2023-03-26T07:45:32;100128.81;;;11.54;66.87
34237;BME280;20501;45.956;13.632;2023-03-26T07:48:18;100127.84;;;12.07;65.02
34237;BME280;20501;45.956;13.632;2023-03-26T07:50:44;100120.19;;;12.03;64.99
34237;BME280;20501;45.956;13.632;2023-03-26T07:53:10;100110.19;;;11.77;64.53
34237;BME280;20501;45.956;13.632;2023-03-26T07:55:44;100115.47;;;12.39;63.72
34237;BME280;20501;45.956;13.632;2023-03-26T08:00:58;100092.28;;;11.76;65.37
34237;BME280;20501;45.956;13.632;2023-03-26T08:03:46;100094.50;;;12.50;63.82
34237;BME280;20501;45.956;13.632;2023-03-26T08:06:23;100083.47;;;12.00;65.31
34237;BME280;20501;45.956;13.632;2023-03-26T08:09:07;100081.94;;;12.32;63.81
34237;BME280;20501;45.956;13.632;2023-03-26T08:11:48;100080.03;;;11.90;64.56
34237;BME280;20501;45.956;13.632;2023-03-26T08:17:19;100086.88;;;12.45;63.52
34237;BME280;20501;45.956;13.632;2023-03-26T08:30:52;100069.69;;;13.37;62.36
34237;BME280;20501;45.956;13.632;2023-03-26T08:33:21;100067.16;;;13.11;62.58
34237;BME280;20501;45.956;13.632;2023-03-26T08:35:50;100068.50;;;13.15;63.93
34237;BME280;20501;45.956;13.632;2023-03-26T08:38:17;100066.31;;;13.35;62.40
34237;BME280;20501;45.956;13.632;2023-03-26T08:54:35;100047.31;;;13.60;62.54
34237;BME280;20501;45.956;13.632;2023-03-26T09:02:05;100022.41;;;13.96;61.42
34237;BME280;20501;45.956;13.632;2023-03-26T09:24:01;99954.34;;;14.52;62.14
34237;BME280;20501;45.956;13.632;2023-03-26T09:26:49;99945.28;;;14.60;62.41
34237;BME280;20501;45.956;13.632;2023-03-26T09:41:13;99943.41;;;14.37;62.65
34237;BME280;20501;45.956;13.632;2023-03-26T10:13:16;99936.78;;;14.40;61.77
34237;BME280;20501;45.956;13.632;2023-03-26T10:21:04;99932.72;;;14.59;61.62
34237;BME280;20501;45.956;13.632;2023-03-26T10:26:47;99923.59;;;14.75;62.75
34237;BME280;20501;45.956;13.632;2023-03-26T10:29:33;99923.72;;;14.82;62.12
34237;BME280;20501;45.956;13.632;2023-03-26T10:32:21;99923.16;;;14.86;61.32
34237;BME280;20501;45.956;13.632;2023-03-26T10:51:14;99887.09;;;14.93;60.74
34237;BME280;20501;45.956;13.632;2023-03-26T10:53:59;99889.06;;;14.99;60.51
34237;BME280;20501;45.956;13.632;2023-03-26T10:56:59;99891.78;;;14.99;60.01
34237;BME280;20501;45.956;13.632;2023-03-26T10:59:26;99888.22;;;14.98;59.56
34237;BME280;20501;45.956;13.632;2023-03-26T11:02:26;99896.84;;;14.87;60.03
34237;BME280;20501;45.956;13.632;2023-03-26T11:08:14;99891.88;;;14.91;62.70
34237;BME280;20501;45.956;13.632;2023-03-26T11:19:10;99864.94;;;14.81;60.52
34237;BME280;20501;45.956;13.632;2023-03-26T11:30:24;99848.91;;;14.86;61.78
34237;BME280;20501;45.956;13.632;2023-03-26T11:32:56;99844.59;;;14.92;61.97
34237;BME280;20501;45.956;13.632;2023-03-26T11:35:43;99849.19;;;14.91;61.09
34237;BME280;20501;45.956;13.632;2023-03-26T11:38:20;99849.75;;;15.01;61.60
34237;BME280;20501;45.956;13.632;2023-03-26T11:40:49;99840.97;;;15.14;59.79
34237;BME280;20501;45.956;13.632;2023-03-26T11:43:21;99830.16;;;15.21;60.27
34237;BME280;20501;45.956;13.632;2023-03-26T11:45:49;99820.56;;;15.25;60.15
34237;BME280;20501;45.956;13.632;2023-03-26T11:48:26;99821.53;;;15.32;59.94
34237;BME280;20501;45.956;13.632;2023-03-26T11:50:57;99828.38;;;15.28;60.23
34237;BME280;20501;45.956;13.632;2023-03-26T11:53:28;99834.66;;;15.29;61.62
34237;BME280;20501;45.956;13.632;2023-03-26T11:56:12;99837.66;;;15.34;61.86
34237;BME280;20501;45.956;13.632;2023-03-26T11:58:53;99838.31;;;15.36;61.86
34237;BME280;20501;45.956;13.632;2023-03-26T12:01:25;99841.13;;;15.43;62.15
34237;BME280;20501;45.956;13.632;2023-03-26T12:04:03;99839.34;;;15.35;61.76
34237;BME280;20501;45.956;13.632;2023-03-26T12:06:29;99832.88;;;15.36;62.16
34237;BME280;20501;45.956;13.632;2023-03-26T12:08:57;99841.88;;;15.37;62.61
34237;BME280;20501;45.956;13.632;2023-03-26T12:11:27;99836.31;;;15.45;62.18
34237;BME280;20501;45.956;13.632;2023-03-26T12:14:00;99834.91;;;15.49;63.70
34237;BME280;20501;45.956;13.632;2023-03-26T12:16:26;99839.44;;;15.27;65.43
34237;BME280;20501;45.956;13.632;2023-03-26T12:19:03;99826.59;;;14.91;65.66
34237;BME280;20501;45.956;13.632;2023-03-26T12:21:30;99828.66;;;15.19;64.78
34237;BME280;20501;45.956;13.632;2023-03-26T12:24:27;99819.47;;;14.90;65.00
34237;BME280;20501;45.956;13.632;2023-03-26T12:27:19;99809.16;;;15.00;65.39
34237;BME280;20501;45.956;13.632;2023-03-26T12:29:57;99798.84;;;14.95;64.66
34237;BME280;20501;45.956;13.632;2023-03-26T12:32:32;99788.44;;;14.84;64.37
34237;BME280;20501;45.956;13.632;2023-03-26T12:35:30;99783.09;;;15.06;64.06
34237;BME280;20501;45.956;13.632;2023-03-26T12:38:23;99778.56;;;15.28;62.83
34237;BME280;20501;45.956;13.632;2023-03-26T12:43:39;99765.63;;;15.15;62.72
34237;BME280;20501;45.956;13.632;2023-03-26T12:48:45;99756.44;;;15.01;62.65
34237;BME280;20501;45.956;13.632;2023-03-26T12:53:47;99769.13;;;14.79;62.63
34237;BME280;20501;45.956;13.632;2023-03-26T13:10:52;99768.34;;;14.55;61.11
34237;BME280;20501;45.956;13.632;2023-03-26T13:16:25;99746.41;;;14.57;60.49
34237;BME280;20501;45.956;13.632;2023-03-26T13:19:08;99747.53;;;14.62;60.32
34237;BME280;20501;45.956;13.632;2023-03-26T13:27:11;99742.00;;;14.55;60.25
34237;BME280;20501;45.956;13.632;2023-03-26T13:37:44;99702.72;;;14.43;57.17
34237;BME280;20501;45.956;13.632;2023-03-26T13:54:27;99678.66;;;14.40;58.72
34237;BME280;20501;45.956;13.632;2023-03-26T13:59:36;99664.59;;;14.51;59.05
34237;BME280;20501;45.956;13.632;2023-03-26T14:02:14;99659.16;;;14.51;57.67
34237;BME280;20501;45.956;13.632;2023-03-26T14:04:46;99656.81;;;14.48;58.37
34237;BME280;20501;45.956;13.632;2023-03-26T14:07:18;99644.47;;;14.46;58.03
34237;BME280;20501;45.956;13.632;2023-03-26T14:09:53;99635.16;;;14.55;57.30
34237;BME280;20501;45.956;13.632;2023-03-26T14:15:20;99616.31;;;14.53;57.16
34237;BME280;20501;45.956;13.632;2023-03-26T14:20:54;99607.72;;;14.50;57.68
34237;BME280;20501;45.956;13.632;2023-03-26T14:29:17;99603.69;;;14.31;58.10
34237;BME280;20501;45.956;13.632;2023-03-26T14:54:05;99555.19;;;14.28;58.85
34237;BME280;20501;45.956;13.632;2023-03-26T15:05:02;99542.19;;;14.23;58.17
34237;BME280;20501;45.956;13.632;2023-03-26T15:10:45;99525.00;;;14.37;58.99
34237;BME280;20501;45.956;13.632;2023-03-26T15:18:58;99513.25;;;14.15;59.78
34237;BME280;20501;45.956;13.632;2023-03-26T15:32:25;99488.16;;;13.98;60.92
34237;BME280;20501;45.956;13.632;2023-03-26T15:43:20;99473.03;;;13.89;62.38
34237;BME280;20501;45.956;13.632;2023-03-26T15:45:50;99467.00;;;14.08;62.09
34237;BME280;20501;45.956;13.632;2023-03-26T16:02:01;99428.22;;;14.36;62.27
34237;BME280;20501;45.956;13.632;2023-03-26T16:04:59;99409.19;;;14.15;62.65
34237;BME280;20501;45.956;13.632;2023-03-26T16:13:53;99408.69;;;13.89;64.08
34237;BME280;20501;45.956;13.632;2023-03-26T16:16:54;99409.06;;;14.01;63.76
34237;BME280;20501;45.956;13.632;2023-03-26T16:22:06;99353.25;;;14.42;62.16
34237;BME280;20501;45.956;13.632;2023-03-26T16:24:34;99354.81;;;13.86;64.57
34237;BME280;20501;45.956;13.632;2023-03-26T16:27:28;99354.28;;;13.76;64.20
34237;BME280;20501;45.956;13.632;2023-03-26T16:32:39;99363.53;;;13.82;64.09
34237;BME280;20501;45.956;13.632;2023-03-26T16:37:46;99346.88;;;13.70;64.28
34237;BME280;20501;45.956;13.632;2023-03-26T16:57:13;99226.47;;;14.21;62.60
34237;BME280;20501;45.956;13.632;2023-03-26T17:02:32;99194.06;;;14.19;62.88
34237;BME280;20501;45.956;13.632;2023-03-26T17:14:02;99174.53;;;14.02;64.28
34237;BME280;20501;45.956;13.632;2023-03-26T17:17:20;99191.59;;;13.74;65.41
34237;BME280;20501;45.956;13.632;2023-03-26T17:41:07;99247.81;;;14.31;67.69
34237;BME280;20501;45.956;13.632;2023-03-26T17:43:44;99256.00;;;13.29;70.73
34237;BME280;20501;45.956;13.632;2023-03-26T17:46:32;99256.59;;;12.34;79.61
34237;BME280;20501;45.956;13.632;2023-03-26T17:49:23;99254.22;;;12.16;80.14
34237;BME280;20501;45.956;13.632;2023-03-26T17:52:04;99254.00;;;12.41;75.80
34237;BME280;20501;45.956;13.632;2023-03-26T17:54:43;99257.44;;;11.42;84.12
34237;BME280;20501;45.956;13.632;2023-03-26T17:59:48;99257.72;;;12.02;78.44
34237;BME280;20501;45.956;13.632;2023-03-26T18:02:17;99271.75;;;12.59;78.74
34237;BME280;20501;45.956;13.632;2023-03-26T18:04:46;99283.53;;;13.11;73.13
34237;BME280;20501;45.956;13.632;2023-03-26T18:12:50;99320.75;;;12.87;75.49
34237;BME280;20501;45.956;13.632;2023-03-26T18:15:33;99314.75;;;13.07;73.29
34237;BME280;20501;45.956;13.632;2023-03-26T18:18:12;99321.09;;;12.84;74.38
34237;BME280;20501;45.956;13.632;2023-03-26T18:20:40;99312.50;;;13.25;72.01
34237;BME280;20501;45.956;13.632;2023-03-26T18:23:23;99329.03;;;12.32;79.83
34237;BME280;20501;45.956;13.632;2023-03-26T18:26:20;99333.88;;;11.27;85.39
34237;BME280;20501;45.956;13.632;2023-03-26T18:28:52;99326.63;;;11.20;87.57
34237;BME280;20501;45.956;13.632;2023-03-26T18:31:23;99329.13;;;12.77;76.22
34237;BME280;20501;45.956;13.632;2023-03-26T18:33:54;99321.66;;;12.94;75.65
34237;BME280;20501;45.956;13.632;2023-03-26T18:36:23;99319.25;;;12.99;74.42
34237;BME280;20501;45.956;13.632;2023-03-26T18:38:49;99307.50;;;12.39;79.59
34237;BME280;20501;45.956;13.632;2023-03-26T18:41:35;99299.19;;;12.56;76.22
34237;BME280;20501;45.956;13.632;2023-03-26T18:44:12;99285.59;;;12.94;74.24
34237;BME280;20501;45.956;13.632;2023-03-26T18:46:38;99282.78;;;11.96;80.29
34237;BME280;20501;45.956;13.632;2023-03-26T18:49:04;99271.84;;;11.66;82.52
34237;BME280;20501;45.956;13.632;2023-03-26T18:51:31;99271.38;;;11.77;81.97
34237;BME280;20501;45.956;13.632;2023-03-26T18:53:58;99257.78;;;12.32;79.53
34237;BME280;20501;45.956;13.632;2023-03-26T18:58:50;99246.84;;;13.67;71.11
34237;BME280;20501;45.956;13.632;2023-03-26T19:01:17;99237.81;;;13.81;70.35
34237;BME280;20501;45.956;13.632;2023-03-26T19:03:44;99228.28;;;13.34;75.21
34237;BME280;20501;45.956;13.632;2023-03-26T19:06:11;99226.28;;;13.21;73.34
34237;BME280;20501;45.956;13.632;2023-03-26T19:08:40;99223.44;;;12.77;76.67
34237;BME280;20501;45.956;13.632;2023-03-26T19:11:08;99216.63;;;12.66;77.64
34237;BME280;20501;45.956;13.632;2023-03-26T19:13:37;99216.63;;;12.51;78.61
34237;BME280;20501;45.956;13.632;2023-03-26T19:16:19;99215.25;;;12.02;81.08
34237;BME280;20501;45.956;13.632;2023-03-26T19:18:46;99208.28;;;12.08;81.81
34237;BME280;20501;45.956;13.632;2023-03-26T19:21:13;99214.09;;;11.73;82.16
34237;BME280;20501;45.956;13.632;2023-03-26T19:23:39;99212.25;;;11.74;82.88